sensor_id;sensor_type;location;lat;lon;timestamp;temperature;humidity
29321;DHT22;16323;51.130;6.612;2022-09-09T00:00:17;23.60;94.40
29321;DHT22;16323;51.130;6.612;2022-09-09T00:02:49;23.60;94.40
29321;DHT22;16323;51.130;6.612;2022-09-09T00:05:24;23.60;94.40
29321;DHT22;16323;51.130;6.612;2022-09-09T00:07:55;23.60;94.60
29321;DHT22;16323;51.130;6.612;2022-09-09T00:10:28;23.60;94.50
29321;DHT22;16323;51.130;6.612;2022-09-09T00:13:02;23.60;94.70
29321;DHT22;16323;51.130;6.612;2022-09-09T00:15:36;23.60;94.60
29321;DHT22;16323;51.130;6.612;2022-09-09T00:18:15;23.60;94.60
29321;DHT22;16323;51.130;6.612;2022-09-09T00:20:47;23.60;95.00
29321;DHT22;16323;51.130;6.612;2022-09-09T00:23:24;23.60;94.60
29321;DHT22;16323;51.130;6.612;2022-09-09T00:25:58;23.60;94.50
29321;DHT22;16323;51.130;6.612;2022-09-09T00:28:27;23.60;94.90
29321;DHT22;16323;51.130;6.612;2022-09-09T00:30:59;23.60;94.50
29321;DHT22;16323;51.130;6.612;2022-09-09T00:36:52;23.60;95.00
29321;DHT22;16323;51.130;6.612;2022-09-09T00:39:25;23.60;94.40
29321;DHT22;16323;51.130;6.612;2022-09-09T00:42:03;23.60;94.40
29321;DHT22;16323;51.130;6.612;2022-09-09T00:44:37;23.60;94.40
29321;DHT22;16323;51.130;6.612;2022-09-09T00:47:12;23.60;94.70
29321;DHT22;16323;51.130;6.612;2022-09-09T00:49:53;23.60;94.60
29321;DHT22;16323;51.130;6.612;2022-09-09T00:52:30;23.60;94.70
29321;DHT22;16323;51.130;6.612;2022-09-09T00:55:05;23.60;94.40
29321;DHT22;16323;51.130;6.612;2022-09-09T00:57:35;23.60;94.50
29321;DHT22;16323;51.130;6.612;2022-09-09T01:03:34;23.60;94.40
29321;DHT22;16323;51.130;6.612;2022-09-09T01:06:11;23.60;94.30
29321;DHT22;16323;51.130;6.612;2022-09-09T01:09:02;23.60;94.50
29321;DHT22;16323;51.130;6.612;2022-09-09T01:11:40;23.60;94.40
29321;DHT22;16323;51.130;6.612;2022-09-09T01:14:14;23.60;94.50
29321;DHT22;16323;51.130;6.612;2022-09-09T01:16:45;23.60;94.50
29321;DHT22;16323;51.130;6.612;2022-09-09T01:19:17;23.60;94.40
29321;DHT22;16323;51.130;6.612;2022-09-09T01:21:52;23.60;94.50
29321;DHT22;16323;51.130;6.612;2022-09-09T01:25:03;23.60;94.40
29321;DHT22;16323;51.130;6.612;2022-09-09T01:27:36;23.60;94.40
29321;DHT22;16323;51.130;6.612;2022-09-09T01:30:07;23.60;94.60
29321;DHT22;16323;51.130;6.612;2022-09-09T01:32:41;23.60;94.30
29321;DHT22;16323;51.130;6.612;2022-09-09T01:35:11;23.60;94.50
29321;DHT22;16323;51.130;6.612;2022-09-09T01:37:39;23.60;94.40
29321;DHT22;16323;51.130;6.612;2022-09-09T01:40:07;23.60;94.30
29321;DHT22;16323;51.130;6.612;2022-09-09T01:42:36;23.60;94.30
29321;DHT22;16323;51.130;6.612;2022-09-09T01:45:03;23.60;94.30
29321;DHT22;16323;51.130;6.612;2022-09-09T01:47:30;23.60;94.50
29321;DHT22;16323;51.130;6.612;2022-09-09T01:49:57;23.60;94.30
29321;DHT22;16323;51.130;6.612;2022-09-09T01:52:25;23.60;94.40
29321;DHT22;16323;51.130;6.612;2022-09-09T01:54:52;23.50;94.50
29321;DHT22;16323;51.130;6.612;2022-09-09T01:57:23;23.50;94.40
29321;DHT22;16323;51.130;6.612;2022-09-09T02:00:03;23.60;94.40
29321;DHT22;16323;51.130;6.612;2022-09-09T02:02:37;23.50;94.30
29321;DHT22;16323;51.130;6.612;2022-09-09T02:05:14;23.50;94.30
29321;DHT22;16323;51.130;6.612;2022-09-09T02:07:46;23.50;94.20
29321;DHT22;16323;51.130;6.612;2022-09-09T02:10:18;23.50;94.30
29321;DHT22;16323;51.130;6.612;2022-09-09T02:12:48;23.50;94.40
29321;DHT22;16323;51.130;6.612;2022-09-09T02:15:21;23.50;94.20
29321;DHT22;16323;51.130;6.612;2022-09-09T02:17:51;23.50;94.00
29321;DHT22;16323;51.130;6.612;2022-09-09T02:20:19;23.50;93.90
29321;DHT22;16323;51.130;6.612;2022-09-09T02:22:49;23.50;93.70
29321;DHT22;16323;51.130;6.612;2022-09-09T02:25:20;23.50;93.50
29321;DHT22;16323;51.130;6.612;2022-09-09T02:27:49;23.50;93.60
29321;DHT22;16323;51.130;6.612;2022-09-09T02:30:19;23.50;93.60
29321;DHT22;16323;51.130;6.612;2022-09-09T02:32:47;23.50;93.30
29321;DHT22;16323;51.130;6.612;2022-09-09T02:35:18;23.50;93.20
29321;DHT22;16323;51.130;6.612;2022-09-09T02:37:47;23.50;93.50
29321;DHT22;16323;51.130;6.612;2022-09-09T02:40:15;23.50;93.30
29321;DHT22;16323;51.130;6.612;2022-09-09T02:42:44;23.50;93.10
29321;DHT22;16323;51.130;6.612;2022-09-09T02:45:14;23.50;93.00
29321;DHT22;16323;51.130;6.612;2022-09-09T02:47:50;23.50;93.10
29321;DHT22;16323;51.130;6.612;2022-09-09T02:53:43;23.50;93.00
29321;DHT22;16323;51.130;6.612;2022-09-09T02:56:14;23.50;93.00
29321;DHT22;16323;51.130;6.612;2022-09-09T02:58:42;23.50;93.00
29321;DHT22;16323;51.130;6.612;2022-09-09T03:01:10;23.50;92.90
29321;DHT22;16323;51.130;6.612;2022-09-09T03:03:38;23.50;92.90
29321;DHT22;16323;51.130;6.612;2022-09-09T03:09:28;23.40;92.90
29321;DHT22;16323;51.130;6.612;2022-09-09T03:11:55;23.50;93.10
29321;DHT22;16323;51.130;6.612;2022-09-09T03:14:22;23.40;93.00
29321;DHT22;16323;51.130;6.612;2022-09-09T03:16:50;23.50;93.00
29321;DHT22;16323;51.130;6.612;2022-09-09T03:19:19;23.50;93.00
29321;DHT22;16323;51.130;6.612;2022-09-09T03:21:46;23.50;92.60
29321;DHT22;16323;51.130;6.612;2022-09-09T03:24:12;23.50;92.60
29321;DHT22;16323;51.130;6.612;2022-09-09T03:26:39;23.50;92.60
29321;DHT22;16323;51.130;6.612;2022-09-09T03:29:07;23.50;92.50
29321;DHT22;16323;51.130;6.612;2022-09-09T03:31:34;23.50;92.70
29321;DHT22;16323;51.130;6.612;2022-09-09T03:37:24;23.50;92.20
29321;DHT22;16323;51.130;6.612;2022-09-09T03:39:51;23.50;92.40
29321;DHT22;16323;51.130;6.612;2022-09-09T03:42:18;23.50;92.40
29321;DHT22;16323;51.130;6.612;2022-09-09T03:44:45;23.50;92.30
29321;DHT22;16323;51.130;6.612;2022-09-09T03:47:15;23.50;92.30
29321;DHT22;16323;51.130;6.612;2022-09-09T03:49:42;23.50;92.30
29321;DHT22;16323;51.130;6.612;2022-09-09T03:52:09;23.50;92.50
29321;DHT22;16323;51.130;6.612;2022-09-09T03:54:37;23.50;92.40
29321;DHT22;16323;51.130;6.612;2022-09-09T03:57:04;23.50;92.50
29321;DHT22;16323;51.130;6.612;2022-09-09T03:59:31;23.50;92.50
29321;DHT22;16323;51.130;6.612;2022-09-09T04:01:58;23.50;92.20
29321;DHT22;16323;51.130;6.612;2022-09-09T04:04:25;23.50;92.20
29321;DHT22;16323;51.130;6.612;2022-09-09T04:06:52;23.50;92.00
29321;DHT22;16323;51.130;6.612;2022-09-09T04:09:19;23.50;91.30
29321;DHT22;16323;51.130;6.612;2022-09-09T04:11:47;23.40;90.90
29321;DHT22;16323;51.130;6.612;2022-09-09T04:14:15;23.40;90.50
29321;DHT22;16323;51.130;6.612;2022-09-09T04:16:41;23.40;90.20
29321;DHT22;16323;51.130;6.612;2022-09-09T04:19:10;23.50;90.20
29321;DHT22;16323;51.130;6.612;2022-09-09T04:21:38;23.50;90.30
29321;DHT22;16323;51.130;6.612;2022-09-09T04:24:06;23.50;90.30
29321;DHT22;16323;51.130;6.612;2022-09-09T04:26:34;23.50;90.50
29321;DHT22;16323;51.130;6.612;2022-09-09T04:29:03;23.50;90.60
29321;DHT22;16323;51.130;6.612;2022-09-09T04:31:30;23.50;90.90
29321;DHT22;16323;51.130;6.612;2022-09-09T04:33:57;23.50;90.80
29321;DHT22;16323;51.130;6.612;2022-09-09T04:36:27;23.50;90.60
29321;DHT22;16323;51.130;6.612;2022-09-09T04:38:54;23.50;90.60
29321;DHT22;16323;51.130;6.612;2022-09-09T04:41:21;23.50;90.70
29321;DHT22;16323;51.130;6.612;2022-09-09T04:43:48;23.50;90.90
29321;DHT22;16323;51.130;6.612;2022-09-09T04:46:16;23.60;91.20
29321;DHT22;16323;51.130;6.612;2022-09-09T04:52:05;23.50;91.40
29321;DHT22;16323;51.130;6.612;2022-09-09T04:54:31;23.50;91.30
29321;DHT22;16323;51.130;6.612;2022-09-09T04:56:58;23.50;91.50
29321;DHT22;16323;51.130;6.612;2022-09-09T04:59:25;23.50;91.60
29321;DHT22;16323;51.130;6.612;2022-09-09T05:01:53;23.50;91.50
29321;DHT22;16323;51.130;6.612;2022-09-09T05:04:21;23.50;91.50
29321;DHT22;16323;51.130;6.612;2022-09-09T05:06:47;23.50;91.60
29321;DHT22;16323;51.130;6.612;2022-09-09T05:09:30;23.50;91.60
29321;DHT22;16323;51.130;6.612;2022-09-09T05:11:57;23.50;91.70
29321;DHT22;16323;51.130;6.612;2022-09-09T05:14:24;23.50;91.80
29321;DHT22;16323;51.130;6.612;2022-09-09T05:16:50;23.50;91.60
29321;DHT22;16323;51.130;6.612;2022-09-09T05:19:18;23.50;91.50
29321;DHT22;16323;51.130;6.612;2022-09-09T05:21:45;23.50;91.60
29321;DHT22;16323;51.130;6.612;2022-09-09T05:24:12;23.50;91.50
29321;DHT22;16323;51.130;6.612;2022-09-09T05:26:39;23.50;91.70
29321;DHT22;16323;51.130;6.612;2022-09-09T05:29:06;23.50;91.80
29321;DHT22;16323;51.130;6.612;2022-09-09T05:31:33;23.50;91.50
29321;DHT22;16323;51.130;6.612;2022-09-09T05:34:00;23.50;91.60
29321;DHT22;16323;51.130;6.612;2022-09-09T05:36:28;23.50;91.70
29321;DHT22;16323;51.130;6.612;2022-09-09T05:38:55;23.50;91.70
29321;DHT22;16323;51.130;6.612;2022-09-09T05:41:22;23.50;91.70
29321;DHT22;16323;51.130;6.612;2022-09-09T05:43:49;23.50;91.40
29321;DHT22;16323;51.130;6.612;2022-09-09T05:46:17;23.50;91.90
29321;DHT22;16323;51.130;6.612;2022-09-09T05:48:46;23.50;91.60
29321;DHT22;16323;51.130;6.612;2022-09-09T05:51:14;23.60;91.70
29321;DHT22;16323;51.130;6.612;2022-09-09T05:53:45;23.50;91.70
29321;DHT22;16323;51.130;6.612;2022-09-09T05:59:37;23.50;91.60
29321;DHT22;16323;51.130;6.612;2022-09-09T06:02:04;23.50;91.80
29321;DHT22;16323;51.130;6.612;2022-09-09T06:04:30;23.50;91.70
29321;DHT22;16323;51.130;6.612;2022-09-09T06:06:57;23.50;91.80
29321;DHT22;16323;51.130;6.612;2022-09-09T06:09:25;23.50;91.90
29321;DHT22;16323;51.130;6.612;2022-09-09T06:11:53;23.50;91.70
29321;DHT22;16323;51.130;6.612;2022-09-09T06:14:20;23.50;91.70
29321;DHT22;16323;51.130;6.612;2022-09-09T06:20:09;23.50;91.60
29321;DHT22;16323;51.130;6.612;2022-09-09T06:22:36;23.50;91.60
29321;DHT22;16323;51.130;6.612;2022-09-09T06:25:05;23.50;91.60
29321;DHT22;16323;51.130;6.612;2022-09-09T06:27:32;23.60;91.60
29321;DHT22;16323;51.130;6.612;2022-09-09T06:29:58;23.50;91.70
29321;DHT22;16323;51.130;6.612;2022-09-09T06:32:25;23.50;91.80
29321;DHT22;16323;51.130;6.612;2022-09-09T06:34:52;23.50;91.70
29321;DHT22;16323;51.130;6.612;2022-09-09T06:37:19;23.50;91.80
29321;DHT22;16323;51.130;6.612;2022-09-09T06:39:46;23.50;91.60
29321;DHT22;16323;51.130;6.612;2022-09-09T06:42:15;23.50;92.10
29321;DHT22;16323;51.130;6.612;2022-09-09T06:44:41;23.50;91.80
29321;DHT22;16323;51.130;6.612;2022-09-09T06:47:08;23.60;91.90
29321;DHT22;16323;51.130;6.612;2022-09-09T06:49:36;23.50;91.80
29321;DHT22;16323;51.130;6.612;2022-09-09T06:52:03;23.50;91.80
29321;DHT22;16323;51.130;6.612;2022-09-09T06:54:30;23.50;91.80
29321;DHT22;16323;51.130;6.612;2022-09-09T06:56:56;23.50;91.80
29321;DHT22;16323;51.130;6.612;2022-09-09T06:59:25;23.50;91.60
29321;DHT22;16323;51.130;6.612;2022-09-09T07:01:52;23.50;92.00
29321;DHT22;16323;51.130;6.612;2022-09-09T07:04:20;23.50;91.60
29321;DHT22;16323;51.130;6.612;2022-09-09T07:06:47;23.50;91.60
29321;DHT22;16323;51.130;6.612;2022-09-09T07:09:15;23.50;91.60
29321;DHT22;16323;51.130;6.612;2022-09-09T07:11:43;23.50;91.60
29321;DHT22;16323;51.130;6.612;2022-09-09T07:14:11;23.50;91.50
29321;DHT22;16323;51.130;6.612;2022-09-09T07:16:40;23.50;91.60
29321;DHT22;16323;51.130;6.612;2022-09-09T07:19:07;23.50;91.60
29321;DHT22;16323;51.130;6.612;2022-09-09T07:24:56;23.50;91.50
29321;DHT22;16323;51.130;6.612;2022-09-09T07:27:23;23.50;91.60
29321;DHT22;16323;51.130;6.612;2022-09-09T07:29:50;23.50;91.50
29321;DHT22;16323;51.130;6.612;2022-09-09T07:32:18;23.60;91.50
29321;DHT22;16323;51.130;6.612;2022-09-09T07:34:45;23.60;91.50
29321;DHT22;16323;51.130;6.612;2022-09-09T07:37:12;23.50;91.40
29321;DHT22;16323;51.130;6.612;2022-09-09T07:39:39;23.50;91.40
29321;DHT22;16323;51.130;6.612;2022-09-09T07:42:06;23.50;91.40
29321;DHT22;16323;51.130;6.612;2022-09-09T07:44:35;23.50;91.40
29321;DHT22;16323;51.130;6.612;2022-09-09T07:47:02;23.60;91.40
29321;DHT22;16323;51.130;6.612;2022-09-09T07:49:30;23.60;91.40
29321;DHT22;16323;51.130;6.612;2022-09-09T07:51:58;23.50;91.30
29321;DHT22;16323;51.130;6.612;2022-09-09T07:54:25;23.60;91.40
29321;DHT22;16323;51.130;6.612;2022-09-09T08:00:14;23.50;91.30
29321;DHT22;16323;51.130;6.612;2022-09-09T08:02:41;23.50;91.30
29321;DHT22;16323;51.130;6.612;2022-09-09T08:05:09;23.50;91.30
29321;DHT22;16323;51.130;6.612;2022-09-09T08:07:36;23.50;91.30
29321;DHT22;16323;51.130;6.612;2022-09-09T08:10:03;23.60;91.30
29321;DHT22;16323;51.130;6.612;2022-09-09T08:12:30;23.50;91.20
29321;DHT22;16323;51.130;6.612;2022-09-09T08:14:57;23.50;91.20
29321;DHT22;16323;51.130;6.612;2022-09-09T08:17:24;23.50;91.20
29321;DHT22;16323;51.130;6.612;2022-09-09T08:19:51;23.60;91.20
29321;DHT22;16323;51.130;6.612;2022-09-09T08:22:20;23.50;91.20
29321;DHT22;16323;51.130;6.612;2022-09-09T08:24:47;23.50;91.20
29321;DHT22;16323;51.130;6.612;2022-09-09T08:27:14;23.50;91.10
29321;DHT22;16323;51.130;6.612;2022-09-09T08:29:41;23.50;91.10
29321;DHT22;16323;51.130;6.612;2022-09-09T08:32:07;23.50;91.10
29321;DHT22;16323;51.130;6.612;2022-09-09T08:34:34;23.60;91.20
29321;DHT22;16323;51.130;6.612;2022-09-09T08:37:01;23.50;91.10
29321;DHT22;16323;51.130;6.612;2022-09-09T08:39:29;23.50;91.10
29321;DHT22;16323;51.130;6.612;2022-09-09T08:45:00;23.60;91.10
29321;DHT22;16323;51.130;6.612;2022-09-09T08:47:35;23.60;91.10
29321;DHT22;16323;51.130;6.612;2022-09-09T08:50:17;23.60;91.10
29321;DHT22;16323;51.130;6.612;2022-09-09T08:52:55;23.60;91.10
29321;DHT22;16323;51.130;6.612;2022-09-09T08:55:32;23.60;91.10
29321;DHT22;16323;51.130;6.612;2022-09-09T08:58:08;23.60;91.00
29321;DHT22;16323;51.130;6.612;2022-09-09T09:00:44;23.60;91.00
29321;DHT22;16323;51.130;6.612;2022-09-09T09:03:18;23.60;91.00
29321;DHT22;16323;51.130;6.612;2022-09-09T09:05:59;23.60;90.90
29321;DHT22;16323;51.130;6.612;2022-09-09T09:08:43;23.60;90.90
29321;DHT22;16323;51.130;6.612;2022-09-09T09:11:12;23.60;90.80
29321;DHT22;16323;51.130;6.612;2022-09-09T09:13:43;23.60;90.80
29321;DHT22;16323;51.130;6.612;2022-09-09T09:16:18;23.60;90.80
29321;DHT22;16323;51.130;6.612;2022-09-09T09:18:46;23.60;90.70
29321;DHT22;16323;51.130;6.612;2022-09-09T09:21:15;23.60;90.70
29321;DHT22;16323;51.130;6.612;2022-09-09T09:23:49;23.70;90.70
29321;DHT22;16323;51.130;6.612;2022-09-09T09:26:23;23.70;90.70
29321;DHT22;16323;51.130;6.612;2022-09-09T09:28:53;23.70;90.70
29321;DHT22;16323;51.130;6.612;2022-09-09T09:31:22;23.70;90.70
29321;DHT22;16323;51.130;6.612;2022-09-09T09:33:52;23.70;90.60
29321;DHT22;16323;51.130;6.612;2022-09-09T09:36:20;23.70;90.60
29321;DHT22;16323;51.130;6.612;2022-09-09T09:38:55;23.80;90.50
29321;DHT22;16323;51.130;6.612;2022-09-09T09:41:34;23.80;90.60
29321;DHT22;16323;51.130;6.612;2022-09-09T09:44:01;23.80;90.50
29321;DHT22;16323;51.130;6.612;2022-09-09T09:46:28;23.80;90.40
29321;DHT22;16323;51.130;6.612;2022-09-09T09:48:59;23.70;89.80
29321;DHT22;16323;51.130;6.612;2022-09-09T09:51:26;23.70;89.50
29321;DHT22;16323;51.130;6.612;2022-09-09T09:53:54;23.70;89.00
29321;DHT22;16323;51.130;6.612;2022-09-09T09:56:32;23.70;88.60
29321;DHT22;16323;51.130;6.612;2022-09-09T09:58:59;23.70;88.00
29321;DHT22;16323;51.130;6.612;2022-09-09T10:01:28;23.70;87.70
29321;DHT22;16323;51.130;6.612;2022-09-09T10:03:58;23.70;86.80
29321;DHT22;16323;51.130;6.612;2022-09-09T10:06:33;23.70;86.20
29321;DHT22;16323;51.130;6.612;2022-09-09T10:09:02;23.70;85.70
29321;DHT22;16323;51.130;6.612;2022-09-09T10:11:44;23.70;85.40
29321;DHT22;16323;51.130;6.612;2022-09-09T10:14:19;23.70;85.30
29321;DHT22;16323;51.130;6.612;2022-09-09T10:17:00;23.60;84.60
29321;DHT22;16323;51.130;6.612;2022-09-09T10:19:31;23.60;84.30
29321;DHT22;16323;51.130;6.612;2022-09-09T10:22:25;23.60;83.80
29321;DHT22;16323;51.130;6.612;2022-09-09T10:28:10;23.60;83.30
29321;DHT22;16323;51.130;6.612;2022-09-09T10:30:46;23.60;83.10
29321;DHT22;16323;51.130;6.612;2022-09-09T10:33:23;23.60;82.70
29321;DHT22;16323;51.130;6.612;2022-09-09T10:35:58;23.60;83.50
29321;DHT22;16323;51.130;6.612;2022-09-09T10:38:30;23.60;83.00
29321;DHT22;16323;51.130;6.612;2022-09-09T10:44:12;23.60;83.10
29321;DHT22;16323;51.130;6.612;2022-09-09T10:46:51;23.60;82.80
29321;DHT22;16323;51.130;6.612;2022-09-09T10:49:27;23.60;83.40
29321;DHT22;16323;51.130;6.612;2022-09-09T10:52:03;23.60;83.20
29321;DHT22;16323;51.130;6.612;2022-09-09T10:54:44;23.60;82.90
29321;DHT22;16323;51.130;6.612;2022-09-09T10:57:19;23.70;83.20
29321;DHT22;16323;51.130;6.612;2022-09-09T10:59:55;23.60;83.00
29321;DHT22;16323;51.130;6.612;2022-09-09T11:02:27;23.60;82.90
29321;DHT22;16323;51.130;6.612;2022-09-09T11:04:59;23.60;82.80
29321;DHT22;16323;51.130;6.612;2022-09-09T11:07:33;23.60;82.50
29321;DHT22;16323;51.130;6.612;2022-09-09T11:10:04;23.60;82.10
29321;DHT22;16323;51.130;6.612;2022-09-09T11:12:34;23.60;81.80
29321;DHT22;16323;51.130;6.612;2022-09-09T11:15:08;23.60;82.10
29321;DHT22;16323;51.130;6.612;2022-09-09T11:17:43;23.60;82.00
29321;DHT22;16323;51.130;6.612;2022-09-09T11:20:13;23.60;81.80
29321;DHT22;16323;51.130;6.612;2022-09-09T11:22:45;23.60;81.80
29321;DHT22;16323;51.130;6.612;2022-09-09T11:25:16;23.60;81.40
29321;DHT22;16323;51.130;6.612;2022-09-09T11:27:56;23.60;81.40
29321;DHT22;16323;51.130;6.612;2022-09-09T11:30:34;23.60;81.40
29321;DHT22;16323;51.130;6.612;2022-09-09T11:33:27;23.60;81.40
29321;DHT22;16323;51.130;6.612;2022-09-09T11:38:59;23.60;81.40
29321;DHT22;16323;51.130;6.612;2022-09-09T11:41:35;23.60;81.40
29321;DHT22;16323;51.130;6.612;2022-09-09T11:44:10;23.60;81.10
29321;DHT22;16323;51.130;6.612;2022-09-09T11:46:40;23.60;81.00
29321;DHT22;16323;51.130;6.612;2022-09-09T11:49:26;23.60;80.50
29321;DHT22;16323;51.130;6.612;2022-09-09T11:51:53;23.60;80.20
29321;DHT22;16323;51.130;6.612;2022-09-09T11:54:31;23.60;80.50
29321;DHT22;16323;51.130;6.612;2022-09-09T11:56:58;23.70;80.30
29321;DHT22;16323;51.130;6.612;2022-09-09T11:59:27;23.70;80.50
29321;DHT22;16323;51.130;6.612;2022-09-09T12:01:57;23.70;80.20
29321;DHT22;16323;51.130;6.612;2022-09-09T12:04:34;23.70;80.20
29321;DHT22;16323;51.130;6.612;2022-09-09T12:07:05;23.70;80.00
29321;DHT22;16323;51.130;6.612;2022-09-09T12:09:50;23.70;80.30
29321;DHT22;16323;51.130;6.612;2022-09-09T12:12:38;23.70;80.60
29321;DHT22;16323;51.130;6.612;2022-09-09T12:15:23;23.70;80.60
29321;DHT22;16323;51.130;6.612;2022-09-09T12:17:56;23.70;80.80
29321;DHT22;16323;51.130;6.612;2022-09-09T12:20:31;23.70;81.10
29321;DHT22;16323;51.130;6.612;2022-09-09T12:23:16;23.70;81.40
29321;DHT22;16323;51.130;6.612;2022-09-09T12:25:57;23.70;81.40
29321;DHT22;16323;51.130;6.612;2022-09-09T12:28:33;23.70;81.40
29321;DHT22;16323;51.130;6.612;2022-09-09T12:31:06;23.70;81.40
29321;DHT22;16323;51.130;6.612;2022-09-09T12:33:37;23.70;81.40
29321;DHT22;16323;51.130;6.612;2022-09-09T12:36:11;23.80;81.50
29321;DHT22;16323;51.130;6.612;2022-09-09T12:38:40;23.70;81.40
29321;DHT22;16323;51.130;6.612;2022-09-09T12:41:18;23.70;81.20
29321;DHT22;16323;51.130;6.612;2022-09-09T12:43:45;23.70;81.00
29321;DHT22;16323;51.130;6.612;2022-09-09T12:46:21;23.80;82.60
29321;DHT22;16323;51.130;6.612;2022-09-09T12:48:53;23.80;83.90
29321;DHT22;16323;51.130;6.612;2022-09-09T12:51:57;23.90;84.70
29321;DHT22;16323;51.130;6.612;2022-09-09T12:54:25;24.00;85.20
29321;DHT22;16323;51.130;6.612;2022-09-09T12:56:53;24.10;84.90
29321;DHT22;16323;51.130;6.612;2022-09-09T12:59:24;24.30;85.00
29321;DHT22;16323;51.130;6.612;2022-09-09T13:02:02;24.40;85.00
29321;DHT22;16323;51.130;6.612;2022-09-09T13:04:30;24.60;85.20
29321;DHT22;16323;51.130;6.612;2022-09-09T13:07:05;24.80;85.20
29321;DHT22;16323;51.130;6.612;2022-09-09T13:09:35;24.90;85.00
29321;DHT22;16323;51.130;6.612;2022-09-09T13:12:02;25.00;84.40
29321;DHT22;16323;51.130;6.612;2022-09-09T13:14:33;25.10;84.90
29321;DHT22;16323;51.130;6.612;2022-09-09T13:17:04;25.20;84.80
29321;DHT22;16323;51.130;6.612;2022-09-09T13:19:36;25.30;83.40
29321;DHT22;16323;51.130;6.612;2022-09-09T13:22:11;25.40;83.50
29321;DHT22;16323;51.130;6.612;2022-09-09T13:24:41;25.40;83.70
29321;DHT22;16323;51.130;6.612;2022-09-09T13:27:26;25.50;83.70
29321;DHT22;16323;51.130;6.612;2022-09-09T13:29:55;25.50;83.10
29321;DHT22;16323;51.130;6.612;2022-09-09T13:32:23;25.60;82.90
29321;DHT22;16323;51.130;6.612;2022-09-09T13:34:55;25.60;83.00
29321;DHT22;16323;51.130;6.612;2022-09-09T13:37:26;25.60;82.30
29321;DHT22;16323;51.130;6.612;2022-09-09T13:39:54;25.70;81.40
29321;DHT22;16323;51.130;6.612;2022-09-09T13:42:26;25.70;81.10
29321;DHT22;16323;51.130;6.612;2022-09-09T13:45:24;25.60;80.70
29321;DHT22;16323;51.130;6.612;2022-09-09T13:47:52;25.50;80.90
29321;DHT22;16323;51.130;6.612;2022-09-09T13:50:24;25.50;81.30
29321;DHT22;16323;51.130;6.612;2022-09-09T13:52:52;25.50;82.00
29321;DHT22;16323;51.130;6.612;2022-09-09T13:55:20;25.50;82.20
29321;DHT22;16323;51.130;6.612;2022-09-09T13:57:51;25.60;82.90
29321;DHT22;16323;51.130;6.612;2022-09-09T14:00:18;25.70;82.40
29321;DHT22;16323;51.130;6.612;2022-09-09T14:02:46;25.70;81.20
29321;DHT22;16323;51.130;6.612;2022-09-09T14:05:13;25.70;80.90
29321;DHT22;16323;51.130;6.612;2022-09-09T14:07:42;25.60;80.30
29321;DHT22;16323;51.130;6.612;2022-09-09T14:10:09;25.50;80.00
29321;DHT22;16323;51.130;6.612;2022-09-09T14:12:36;25.50;80.40
29321;DHT22;16323;51.130;6.612;2022-09-09T14:15:04;25.40;80.20
29321;DHT22;16323;51.130;6.612;2022-09-09T14:17:31;25.30;80.30
29321;DHT22;16323;51.130;6.612;2022-09-09T14:19:58;25.10;80.20
29321;DHT22;16323;51.130;6.612;2022-09-09T14:22:25;24.90;80.60
29321;DHT22;16323;51.130;6.612;2022-09-09T14:24:55;24.80;80.50
29321;DHT22;16323;51.130;6.612;2022-09-09T14:27:23;24.70;80.00
29321;DHT22;16323;51.130;6.612;2022-09-09T14:29:51;24.60;79.90
29321;DHT22;16323;51.130;6.612;2022-09-09T14:32:18;24.50;79.40
29321;DHT22;16323;51.130;6.612;2022-09-09T14:34:45;24.50;78.90
29321;DHT22;16323;51.130;6.612;2022-09-09T14:37:15;24.50;79.40
29321;DHT22;16323;51.130;6.612;2022-09-09T14:39:41;24.40;78.20
29321;DHT22;16323;51.130;6.612;2022-09-09T14:42:11;24.30;79.20
29321;DHT22;16323;51.130;6.612;2022-09-09T14:44:37;24.30;81.00
29321;DHT22;16323;51.130;6.612;2022-09-09T14:47:05;24.20;81.90
29321;DHT22;16323;51.130;6.612;2022-09-09T14:49:33;24.20;81.90
29321;DHT22;16323;51.130;6.612;2022-09-09T14:52:00;24.20;81.90
29321;DHT22;16323;51.130;6.612;2022-09-09T14:54:27;24.10;81.80
29321;DHT22;16323;51.130;6.612;2022-09-09T14:56:54;24.10;81.80
29321;DHT22;16323;51.130;6.612;2022-09-09T14:59:23;24.00;81.70
29321;DHT22;16323;51.130;6.612;2022-09-09T15:01:50;24.00;82.50
29321;DHT22;16323;51.130;6.612;2022-09-09T15:04:18;24.00;82.90
29321;DHT22;16323;51.130;6.612;2022-09-09T15:06:45;24.00;83.30
29321;DHT22;16323;51.130;6.612;2022-09-09T15:09:13;23.90;83.80
29321;DHT22;16323;51.130;6.612;2022-09-09T15:11:40;23.90;84.00
29321;DHT22;16323;51.130;6.612;2022-09-09T15:14:09;23.90;84.30
29321;DHT22;16323;51.130;6.612;2022-09-09T15:16:39;23.90;84.50
29321;DHT22;16323;51.130;6.612;2022-09-09T15:19:06;23.90;84.70
29321;DHT22;16323;51.130;6.612;2022-09-09T15:21:35;23.80;84.80
29321;DHT22;16323;51.130;6.612;2022-09-09T15:24:03;23.90;85.40
29321;DHT22;16323;51.130;6.612;2022-09-09T15:26:32;23.80;85.20
29321;DHT22;16323;51.130;6.612;2022-09-09T15:29:00;23.80;85.70
29321;DHT22;16323;51.130;6.612;2022-09-09T15:31:28;23.80;85.90
29321;DHT22;16323;51.130;6.612;2022-09-09T15:33:58;23.90;85.90
29321;DHT22;16323;51.130;6.612;2022-09-09T15:36:28;23.90;86.10
29321;DHT22;16323;51.130;6.612;2022-09-09T15:38:55;23.80;86.40
29321;DHT22;16323;51.130;6.612;2022-09-09T15:41:22;23.80;86.60
29321;DHT22;16323;51.130;6.612;2022-09-09T15:47:12;23.80;86.60
29321;DHT22;16323;51.130;6.612;2022-09-09T15:49:42;23.80;86.90
29321;DHT22;16323;51.130;6.612;2022-09-09T15:52:09;23.80;86.60
29321;DHT22;16323;51.130;6.612;2022-09-09T15:54:37;23.80;87.10
29321;DHT22;16323;51.130;6.612;2022-09-09T15:57:07;23.80;87.70
29321;DHT22;16323;51.130;6.612;2022-09-09T15:59:34;23.80;87.90
29321;DHT22;16323;51.130;6.612;2022-09-09T16:02:01;23.80;87.50
29321;DHT22;16323;51.130;6.612;2022-09-09T16:04:29;23.80;87.50
29321;DHT22;16323;51.130;6.612;2022-09-09T16:07:05;23.80;88.20
29321;DHT22;16323;51.130;6.612;2022-09-09T16:09:33;23.80;88.60
29321;DHT22;16323;51.130;6.612;2022-09-09T16:12:02;23.80;88.60
29321;DHT22;16323;51.130;6.612;2022-09-09T16:14:31;23.80;87.50
29321;DHT22;16323;51.130;6.612;2022-09-09T16:16:59;23.80;87.80
29321;DHT22;16323;51.130;6.612;2022-09-09T16:19:26;23.80;87.50
29321;DHT22;16323;51.130;6.612;2022-09-09T16:21:53;23.80;87.50
29321;DHT22;16323;51.130;6.612;2022-09-09T16:24:21;23.80;87.50
29321;DHT22;16323;51.130;6.612;2022-09-09T16:26:50;23.80;86.90
29321;DHT22;16323;51.130;6.612;2022-09-09T16:29:18;23.80;86.70
29321;DHT22;16323;51.130;6.612;2022-09-09T16:31:46;23.80;87.10
29321;DHT22;16323;51.130;6.612;2022-09-09T16:34:13;23.80;87.80
29321;DHT22;16323;51.130;6.612;2022-09-09T16:36:42;23.80;87.00
29321;DHT22;16323;51.130;6.612;2022-09-09T16:39:10;23.80;87.20